sensor_id;sensor_type;location;lat;lon;timestamp;temperature;humidity
28763;DHT22;15918;51.270;6.522;2024-03-06T00:00:55;11.40;68.90
28763;DHT22;15918;51.270;6.522;2024-03-06T00:03:21;11.30;68.80
28763;DHT22;15918;51.270;6.522;2024-03-06T00:05:47;11.30;68.60
28763;DHT22;15918;51.270;6.522;2024-03-06T00:08:13;11.30;68.50
28763;DHT22;15918;51.270;6.522;2024-03-06T00:10:41;11.40;68.40
28763;DHT22;15918;51.270;6.522;2024-03-06T00:13:06;11.30;68.20
28763;DHT22;15918;51.270;6.522;2024-03-06T00:15:32;11.30;68.10
28763;DHT22;15918;51.270;6.522;2024-03-06T00:17:57;11.30;67.90
28763;DHT22;15918;51.270;6.522;2024-03-06T00:20:24;11.30;67.80
28763;DHT22;15918;51.270;6.522;2024-03-06T00:22:49;11.30;67.80
28763;DHT22;15918;51.270;6.522;2024-03-06T00:25:15;11.30;67.60
28763;DHT22;15918;51.270;6.522;2024-03-06T00:27:41;11.30;67.50
28763;DHT22;15918;51.270;6.522;2024-03-06T00:30:07;11.30;67.40
28763;DHT22;15918;51.270;6.522;2024-03-06T00:32:32;11.20;67.30
28763;DHT22;15918;51.270;6.522;2024-03-06T00:34:58;11.20;67.10
28763;DHT22;15918;51.270;6.522;2024-03-06T00:37:23;11.20;67.00
28763;DHT22;15918;51.270;6.522;2024-03-06T00:39:49;11.20;66.90
28763;DHT22;15918;51.270;6.522;2024-03-06T00:42:15;11.20;66.80
28763;DHT22;15918;51.270;6.522;2024-03-06T00:44:41;11.20;66.80
28763;DHT22;15918;51.270;6.522;2024-03-06T00:47:06;11.20;66.70
28763;DHT22;15918;51.270;6.522;2024-03-06T00:49:32;11.20;66.60
28763;DHT22;15918;51.270;6.522;2024-03-06T00:51:58;11.20;67.30
28763;DHT22;15918;51.270;6.522;2024-03-06T00:54:23;11.20;66.40
28763;DHT22;15918;51.270;6.522;2024-03-06T00:56:49;11.10;66.30
28763;DHT22;15918;51.270;6.522;2024-03-06T00:59:14;11.10;66.20
28763;DHT22;15918;51.270;6.522;2024-03-06T01:01:40;11.10;66.10
28763;DHT22;15918;51.270;6.522;2024-03-06T01:04:06;11.10;66.10
28763;DHT22;15918;51.270;6.522;2024-03-06T01:06:32;11.10;66.00
28763;DHT22;15918;51.270;6.522;2024-03-06T01:08:58;11.10;66.10
28763;DHT22;15918;51.270;6.522;2024-03-06T01:11:24;11.10;66.40
28763;DHT22;15918;51.270;6.522;2024-03-06T01:13:51;11.00;66.40
28763;DHT22;15918;51.270;6.522;2024-03-06T01:16:17;11.00;66.40
28763;DHT22;15918;51.270;6.522;2024-03-06T01:18:43;11.00;66.50
28763;DHT22;15918;51.270;6.522;2024-03-06T01:21:09;11.00;66.50
28763;DHT22;15918;51.270;6.522;2024-03-06T01:23:34;11.00;66.60
28763;DHT22;15918;51.270;6.522;2024-03-06T01:26:00;11.00;66.60
28763;DHT22;15918;51.270;6.522;2024-03-06T01:28:26;11.00;66.70
28763;DHT22;15918;51.270;6.522;2024-03-06T01:30:51;11.00;66.80
28763;DHT22;15918;51.270;6.522;2024-03-06T01:33:17;10.90;66.90
28763;DHT22;15918;51.270;6.522;2024-03-06T01:35:42;10.90;67.10
28763;DHT22;15918;51.270;6.522;2024-03-06T01:38:08;10.90;67.20
28763;DHT22;15918;51.270;6.522;2024-03-06T01:40:35;10.90;67.20
28763;DHT22;15918;51.270;6.522;2024-03-06T01:43:01;10.90;67.50
28763;DHT22;15918;51.270;6.522;2024-03-06T01:45:26;10.90;67.70
28763;DHT22;15918;51.270;6.522;2024-03-06T01:47:52;10.90;67.80
28763;DHT22;15918;51.270;6.522;2024-03-06T01:50:18;10.80;67.80
28763;DHT22;15918;51.270;6.522;2024-03-06T01:52:44;10.90;68.00
28763;DHT22;15918;51.270;6.522;2024-03-06T01:55:12;10.80;68.20
28763;DHT22;15918;51.270;6.522;2024-03-06T01:57:38;10.90;68.20
28763;DHT22;15918;51.270;6.522;2024-03-06T02:00:06;10.80;68.20
28763;DHT22;15918;51.270;6.522;2024-03-06T02:02:34;10.80;68.40
28763;DHT22;15918;51.270;6.522;2024-03-06T02:04:59;10.90;68.50
28763;DHT22;15918;51.270;6.522;2024-03-06T02:07:26;10.80;68.60
28763;DHT22;15918;51.270;6.522;2024-03-06T02:09:54;10.80;68.60
28763;DHT22;15918;51.270;6.522;2024-03-06T02:12:19;10.80;68.70
28763;DHT22;15918;51.270;6.522;2024-03-06T02:14:45;10.80;68.80
28763;DHT22;15918;51.270;6.522;2024-03-06T02:17:10;10.80;68.90
28763;DHT22;15918;51.270;6.522;2024-03-06T02:19:41;10.80;69.00
28763;DHT22;15918;51.270;6.522;2024-03-06T02:22:07;10.80;69.00
28763;DHT22;15918;51.270;6.522;2024-03-06T02:24:34;10.80;69.10
28763;DHT22;15918;51.270;6.522;2024-03-06T02:27:00;10.80;69.20
28763;DHT22;15918;51.270;6.522;2024-03-06T02:29:25;10.80;69.20
28763;DHT22;15918;51.270;6.522;2024-03-06T02:31:51;10.90;69.30
28763;DHT22;15918;51.270;6.522;2024-03-06T02:34:16;10.80;69.30
28763;DHT22;15918;51.270;6.522;2024-03-06T02:36:42;10.80;69.40
28763;DHT22;15918;51.270;6.522;2024-03-06T02:39:08;10.80;69.40
28763;DHT22;15918;51.270;6.522;2024-03-06T02:41:38;10.80;69.40
28763;DHT22;15918;51.270;6.522;2024-03-06T02:44:03;10.80;70.10
28763;DHT22;15918;51.270;6.522;2024-03-06T02:46:29;10.80;69.40
28763;DHT22;15918;51.270;6.522;2024-03-06T02:48:55;10.80;69.40
28763;DHT22;15918;51.270;6.522;2024-03-06T02:51:21;10.80;69.40
28763;DHT22;15918;51.270;6.522;2024-03-06T02:53:47;10.80;69.40
28763;DHT22;15918;51.270;6.522;2024-03-06T02:56:20;10.80;69.40
28763;DHT22;15918;51.270;6.522;2024-03-06T02:58:46;10.90;69.40
28763;DHT22;15918;51.270;6.522;2024-03-06T03:01:13;10.80;69.40
28763;DHT22;15918;51.270;6.522;2024-03-06T03:03:42;10.80;69.20
28763;DHT22;15918;51.270;6.522;2024-03-06T03:06:10;10.80;69.00
28763;DHT22;15918;51.270;6.522;2024-03-06T03:08:37;10.80;69.00
28763;DHT22;15918;51.270;6.522;2024-03-06T03:11:03;10.80;68.90
28763;DHT22;15918;51.270;6.522;2024-03-06T03:13:28;10.80;68.80
28763;DHT22;15918;51.270;6.522;2024-03-06T03:15:55;10.80;68.70
28763;DHT22;15918;51.270;6.522;2024-03-06T03:18:21;10.80;68.60
28763;DHT22;15918;51.270;6.522;2024-03-06T03:20:46;10.80;68.40
28763;DHT22;15918;51.270;6.522;2024-03-06T03:23:12;10.80;68.40
28763;DHT22;15918;51.270;6.522;2024-03-06T03:25:40;10.80;68.20
28763;DHT22;15918;51.270;6.522;2024-03-06T03:28:06;10.80;68.10
28763;DHT22;15918;51.270;6.522;2024-03-06T03:30:32;10.80;68.00
28763;DHT22;15918;51.270;6.522;2024-03-06T03:32:58;10.70;67.70
28763;DHT22;15918;51.270;6.522;2024-03-06T03:35:24;10.70;67.60
28763;DHT22;15918;51.270;6.522;2024-03-06T03:37:51;10.70;67.50
28763;DHT22;15918;51.270;6.522;2024-03-06T03:40:18;10.70;67.30
28763;DHT22;15918;51.270;6.522;2024-03-06T03:42:47;10.70;67.30
28763;DHT22;15918;51.270;6.522;2024-03-06T03:45:13;10.70;67.30
28763;DHT22;15918;51.270;6.522;2024-03-06T03:47:38;10.70;67.50
28763;DHT22;15918;51.270;6.522;2024-03-06T03:50:04;10.70;67.40
28763;DHT22;15918;51.270;6.522;2024-03-06T03:52:30;10.70;67.30
28763;DHT22;15918;51.270;6.522;2024-03-06T03:54:55;10.70;67.90
28763;DHT22;15918;51.270;6.522;2024-03-06T03:57:21;10.70;66.90
28763;DHT22;15918;51.270;6.522;2024-03-06T03:59:46;10.60;66.80
28763;DHT22;15918;51.270;6.522;2024-03-06T04:02:12;10.60;66.60
28763;DHT22;15918;51.270;6.522;2024-03-06T04:04:38;10.60;66.60
28763;DHT22;15918;51.270;6.522;2024-03-06T04:07:03;10.60;66.50
28763;DHT22;15918;51.270;6.522;2024-03-06T04:09:32;10.60;66.30
28763;DHT22;15918;51.270;6.522;2024-03-06T04:11:59;10.60;66.20
28763;DHT22;15918;51.270;6.522;2024-03-06T04:14:25;10.60;66.00
28763;DHT22;15918;51.270;6.522;2024-03-06T04:16:52;10.50;65.90
28763;DHT22;15918;51.270;6.522;2024-03-06T04:19:17;10.60;65.90
28763;DHT22;15918;51.270;6.522;2024-03-06T04:21:43;10.50;65.70
28763;DHT22;15918;51.270;6.522;2024-03-06T04:24:09;10.50;65.80
28763;DHT22;15918;51.270;6.522;2024-03-06T04:26:35;10.50;65.80
28763;DHT22;15918;51.270;6.522;2024-03-06T04:29:01;10.50;65.90
28763;DHT22;15918;51.270;6.522;2024-03-06T04:31:28;10.50;66.10
28763;DHT22;15918;51.270;6.522;2024-03-06T04:33:54;10.50;66.40
28763;DHT22;15918;51.270;6.522;2024-03-06T04:36:19;10.50;66.60
28763;DHT22;15918;51.270;6.522;2024-03-06T04:38:45;10.60;66.80
28763;DHT22;15918;51.270;6.522;2024-03-06T04:41:11;10.50;66.80
28763;DHT22;15918;51.270;6.522;2024-03-06T04:43:36;10.50;66.90
28763;DHT22;15918;51.270;6.522;2024-03-06T04:46:02;10.50;67.00
28763;DHT22;15918;51.270;6.522;2024-03-06T04:48:28;10.40;67.00
28763;DHT22;15918;51.270;6.522;2024-03-06T04:50:53;10.40;67.00
28763;DHT22;15918;51.270;6.522;2024-03-06T04:53:19;10.40;67.10
28763;DHT22;15918;51.270;6.522;2024-03-06T04:55:46;10.40;67.10
28763;DHT22;15918;51.270;6.522;2024-03-06T04:58:12;10.40;67.10
28763;DHT22;15918;51.270;6.522;2024-03-06T05:00:37;10.40;66.90
28763;DHT22;15918;51.270;6.522;2024-03-06T05:03:03;10.40;66.70
28763;DHT22;15918;51.270;6.522;2024-03-06T05:05:29;10.40;66.60
28763;DHT22;15918;51.270;6.522;2024-03-06T05:07:55;10.30;66.40
28763;DHT22;15918;51.270;6.522;2024-03-06T05:10:20;10.30;66.10
28763;DHT22;15918;51.270;6.522;2024-03-06T05:12:46;10.30;66.00
28763;DHT22;15918;51.270;6.522;2024-03-06T05:15:12;10.30;65.90
28763;DHT22;15918;51.270;6.522;2024-03-06T05:17:38;10.30;65.80
28763;DHT22;15918;51.270;6.522;2024-03-06T05:20:04;10.30;65.70
28763;DHT22;15918;51.270;6.522;2024-03-06T05:22:30;10.30;65.60
28763;DHT22;15918;51.270;6.522;2024-03-06T05:24:56;10.30;66.20
28763;DHT22;15918;51.270;6.522;2024-03-06T05:27:22;10.20;65.40
28763;DHT22;15918;51.270;6.522;2024-03-06T05:29:47;10.20;65.50
28763;DHT22;15918;51.270;6.522;2024-03-06T05:32:13;10.30;65.40
28763;DHT22;15918;51.270;6.522;2024-03-06T05:34:39;10.20;65.20
28763;DHT22;15918;51.270;6.522;2024-03-06T05:37:04;10.30;65.20
28763;DHT22;15918;51.270;6.522;2024-03-06T05:39:31;10.20;65.00
28763;DHT22;15918;51.270;6.522;2024-03-06T05:42:01;10.20;64.90
28763;DHT22;15918;51.270;6.522;2024-03-06T05:44:29;10.20;64.70
28763;DHT22;15918;51.270;6.522;2024-03-06T05:46:55;10.20;64.70
28763;DHT22;15918;51.270;6.522;2024-03-06T05:49:21;10.20;64.50
28763;DHT22;15918;51.270;6.522;2024-03-06T05:51:46;10.20;64.50
28763;DHT22;15918;51.270;6.522;2024-03-06T05:54:12;10.10;64.50
28763;DHT22;15918;51.270;6.522;2024-03-06T05:56:38;10.20;65.30
28763;DHT22;15918;51.270;6.522;2024-03-06T05:59:04;10.10;64.50
28763;DHT22;15918;51.270;6.522;2024-03-06T06:01:31;10.10;64.50
28763;DHT22;15918;51.270;6.522;2024-03-06T06:03:56;10.10;64.50
28763;DHT22;15918;51.270;6.522;2024-03-06T06:06:22;10.10;64.50
28763;DHT22;15918;51.270;6.522;2024-03-06T06:08:48;10.10;64.60
28763;DHT22;15918;51.270;6.522;2024-03-06T06:11:13;10.10;64.50
28763;DHT22;15918;51.270;6.522;2024-03-06T06:13:39;10.10;64.50
28763;DHT22;15918;51.270;6.522;2024-03-06T06:16:05;10.00;64.50
28763;DHT22;15918;51.270;6.522;2024-03-06T06:18:31;10.00;64.50
28763;DHT22;15918;51.270;6.522;2024-03-06T06:20:58;10.00;64.50
28763;DHT22;15918;51.270;6.522;2024-03-06T06:23:23;10.00;64.60
28763;DHT22;15918;51.270;6.522;2024-03-06T06:25:49;10.00;64.60
28763;DHT22;15918;51.270;6.522;2024-03-06T06:28:14;10.00;64.50
28763;DHT22;15918;51.270;6.522;2024-03-06T06:30:40;10.00;64.50
28763;DHT22;15918;51.270;6.522;2024-03-06T06:33:07;9.90;64.30
28763;DHT22;15918;51.270;6.522;2024-03-06T06:35:33;10.00;64.40
28763;DHT22;15918;51.270;6.522;2024-03-06T06:38:00;9.90;64.40
28763;DHT22;15918;51.270;6.522;2024-03-06T06:40:26;9.90;64.40
28763;DHT22;15918;51.270;6.522;2024-03-06T06:42:53;9.90;64.50
28763;DHT22;15918;51.270;6.522;2024-03-06T06:45:20;9.90;64.80
28763;DHT22;15918;51.270;6.522;2024-03-06T06:47:45;9.90;64.90
28763;DHT22;15918;51.270;6.522;2024-03-06T06:50:11;9.90;64.80
28763;DHT22;15918;51.270;6.522;2024-03-06T06:52:38;9.90;64.80
28763;DHT22;15918;51.270;6.522;2024-03-06T06:55:04;9.90;64.80
28763;DHT22;15918;51.270;6.522;2024-03-06T06:57:30;9.90;64.90
28763;DHT22;15918;51.270;6.522;2024-03-06T06:59:55;9.90;65.00
28763;DHT22;15918;51.270;6.522;2024-03-06T07:02:21;9.90;65.10
28763;DHT22;15918;51.270;6.522;2024-03-06T07:04:47;9.90;65.30
28763;DHT22;15918;51.270;6.522;2024-03-06T07:07:14;9.90;65.40
28763;DHT22;15918;51.270;6.522;2024-03-06T07:09:39;9.90;65.70
28763;DHT22;15918;51.270;6.522;2024-03-06T07:12:05;9.90;65.90
28763;DHT22;15918;51.270;6.522;2024-03-06T07:14:31;9.90;66.10
28763;DHT22;15918;51.270;6.522;2024-03-06T07:16:56;9.90;66.30
28763;DHT22;15918;51.270;6.522;2024-03-06T07:19:23;9.90;66.50
28763;DHT22;15918;51.270;6.522;2024-03-06T07:21:48;9.90;66.70
28763;DHT22;15918;51.270;6.522;2024-03-06T07:24:14;9.90;66.90
28763;DHT22;15918;51.270;6.522;2024-03-06T07:26:39;9.90;67.10
28763;DHT22;15918;51.270;6.522;2024-03-06T07:29:05;10.00;67.30
28763;DHT22;15918;51.270;6.522;2024-03-06T07:31:38;10.00;67.50
28763;DHT22;15918;51.270;6.522;2024-03-06T07:34:04;10.00;67.70
28763;DHT22;15918;51.270;6.522;2024-03-06T07:36:34;10.00;67.90
28763;DHT22;15918;51.270;6.522;2024-03-06T07:39:00;10.00;68.10
28763;DHT22;15918;51.270;6.522;2024-03-06T07:41:26;10.10;68.30
28763;DHT22;15918;51.270;6.522;2024-03-06T07:43:52;10.10;68.50
28763;DHT22;15918;51.270;6.522;2024-03-06T07:46:17;10.10;68.60
28763;DHT22;15918;51.270;6.522;2024-03-06T07:48:43;10.10;68.60
28763;DHT22;15918;51.270;6.522;2024-03-06T07:51:11;10.10;69.00
28763;DHT22;15918;51.270;6.522;2024-03-06T07:53:37;10.10;69.20
28763;DHT22;15918;51.270;6.522;2024-03-06T07:56:03;10.10;69.40
28763;DHT22;15918;51.270;6.522;2024-03-06T07:58:29;10.20;69.50
28763;DHT22;15918;51.270;6.522;2024-03-06T08:00:54;10.20;69.70
28763;DHT22;15918;51.270;6.522;2024-03-06T08:03:24;10.20;69.80
28763;DHT22;15918;51.270;6.522;2024-03-06T08:05:52;10.30;69.90
28763;DHT22;15918;51.270;6.522;2024-03-06T08:08:18;10.30;70.10
28763;DHT22;15918;51.270;6.522;2024-03-06T08:10:44;10.30;70.20
28763;DHT22;15918;51.270;6.522;2024-03-06T08:13:10;10.30;70.40
28763;DHT22;15918;51.270;6.522;2024-03-06T08:15:36;10.30;70.40
28763;DHT22;15918;51.270;6.522;2024-03-06T08:18:01;10.40;70.40
28763;DHT22;15918;51.270;6.522;2024-03-06T08:20:29;10.40;70.50
28763;DHT22;15918;51.270;6.522;2024-03-06T08:22:56;10.40;70.60
28763;DHT22;15918;51.270;6.522;2024-03-06T08:25:21;10.40;70.60
28763;DHT22;15918;51.270;6.522;2024-03-06T08:27:47;10.50;70.60
28763;DHT22;15918;51.270;6.522;2024-03-06T08:30:13;10.50;70.50
28763;DHT22;15918;51.270;6.522;2024-03-06T08:32:39;10.50;70.40
28763;DHT22;15918;51.270;6.522;2024-03-06T08:35:11;10.50;70.20
28763;DHT22;15918;51.270;6.522;2024-03-06T08:37:39;10.60;70.00
28763;DHT22;15918;51.270;6.522;2024-03-06T08:40:06;10.60;70.00
28763;DHT22;15918;51.270;6.522;2024-03-06T08:42:33;10.60;70.00
28763;DHT22;15918;51.270;6.522;2024-03-06T08:44:59;10.70;70.20
28763;DHT22;15918;51.270;6.522;2024-03-06T08:47:24;10.70;70.30
28763;DHT22;15918;51.270;6.522;2024-03-06T08:49:50;10.70;70.10
28763;DHT22;15918;51.270;6.522;2024-03-06T08:52:16;10.70;70.10
28763;DHT22;15918;51.270;6.522;2024-03-06T08:54:41;10.70;69.90
28763;DHT22;15918;51.270;6.522;2024-03-06T08:57:07;10.80;69.80
28763;DHT22;15918;51.270;6.522;2024-03-06T08:59:34;10.80;69.60
28763;DHT22;15918;51.270;6.522;2024-03-06T09:02:14;10.80;69.70
28763;DHT22;15918;51.270;6.522;2024-03-06T09:04:40;10.80;69.60
28763;DHT22;15918;51.270;6.522;2024-03-06T09:07:06;10.90;69.90
28763;DHT22;15918;51.270;6.522;2024-03-06T09:09:32;10.90;70.60
28763;DHT22;15918;51.270;6.522;2024-03-06T09:12:00;10.90;69.60
28763;DHT22;15918;51.270;6.522;2024-03-06T09:14:25;10.90;69.50
28763;DHT22;15918;51.270;6.522;2024-03-06T09:16:51;11.00;69.50
28763;DHT22;15918;51.270;6.522;2024-03-06T09:19:17;11.00;69.40
28763;DHT22;15918;51.270;6.522;2024-03-06T09:21:42;11.00;69.30
28763;DHT22;15918;51.270;6.522;2024-03-06T09:24:08;11.10;69.30
28763;DHT22;15918;51.270;6.522;2024-03-06T09:26:33;11.10;69.30
28763;DHT22;15918;51.270;6.522;2024-03-06T09:29:00;11.10;69.30
28763;DHT22;15918;51.270;6.522;2024-03-06T09:31:26;11.10;69.40
28763;DHT22;15918;51.270;6.522;2024-03-06T09:33:53;11.20;69.40
28763;DHT22;15918;51.270;6.522;2024-03-06T09:36:18;11.20;69.30
28763;DHT22;15918;51.270;6.522;2024-03-06T09:38:44;11.30;69.30
28763;DHT22;15918;51.270;6.522;2024-03-06T09:41:10;11.20;69.10
28763;DHT22;15918;51.270;6.522;2024-03-06T09:43:35;11.30;69.20
28763;DHT22;15918;51.270;6.522;2024-03-06T09:46:01;11.30;69.20
28763;DHT22;15918;51.270;6.522;2024-03-06T09:48:30;11.30;69.10
28763;DHT22;15918;51.270;6.522;2024-03-06T09:51:00;11.30;69.00
28763;DHT22;15918;51.270;6.522;2024-03-06T09:53:27;11.40;69.00
28763;DHT22;15918;51.270;6.522;2024-03-06T09:55:54;11.50;69.00
28763;DHT22;15918;51.270;6.522;2024-03-06T09:58:21;11.40;68.90
28763;DHT22;15918;51.270;6.522;2024-03-06T10:00:48;11.50;69.00
28763;DHT22;15918;51.270;6.522;2024-03-06T10:03:15;11.50;68.80
28763;DHT22;15918;51.270;6.522;2024-03-06T10:05:41;11.50;69.00
28763;DHT22;15918;51.270;6.522;2024-03-06T10:08:09;11.60;68.90
28763;DHT22;15918;51.270;6.522;2024-03-06T10:10:35;11.60;68.90
28763;DHT22;15918;51.270;6.522;2024-03-06T10:13:02;11.60;68.90
28763;DHT22;15918;51.270;6.522;2024-03-06T10:15:27;11.60;69.00
28763;DHT22;15918;51.270;6.522;2024-03-06T10:18:13;11.70;68.90
28763;DHT22;15918;51.270;6.522;2024-03-06T10:20:41;11.70;68.70
28763;DHT22;15918;51.270;6.522;2024-03-06T10:23:10;11.70;69.00
28763;DHT22;15918;51.270;6.522;2024-03-06T10:25:35;11.70;69.20
28763;DHT22;15918;51.270;6.522;2024-03-06T10:28:07;11.70;69.20
28763;DHT22;15918;51.270;6.522;2024-03-06T10:30:35;11.80;69.40
28763;DHT22;15918;51.270;6.522;2024-03-06T10:33:04;11.80;69.40
28763;DHT22;15918;51.270;6.522;2024-03-06T10:35:34;11.80;69.30
28763;DHT22;15918;51.270;6.522;2024-03-06T10:38:01;11.90;69.20
28763;DHT22;15918;51.270;6.522;2024-03-06T10:40:31;11.90;69.10
28763;DHT22;15918;51.270;6.522;2024-03-06T10:42:58;11.90;68.90
28763;DHT22;15918;51.270;6.522;2024-03-06T10:45:50;12.00;69.20
28763;DHT22;15918;51.270;6.522;2024-03-06T10:48:17;12.00;69.30
28763;DHT22;15918;51.270;6.522;2024-03-06T10:50:43;12.00;69.40
28763;DHT22;15918;51.270;6.522;2024-03-06T10:53:11;12.00;69.10
28763;DHT22;15918;51.270;6.522;2024-03-06T10:55:37;12.10;69.10
28763;DHT22;15918;51.270;6.522;2024-03-06T10:58:07;12.10;69.00
28763;DHT22;15918;51.270;6.522;2024-03-06T11:00:36;12.10;68.90
28763;DHT22;15918;51.270;6.522;2024-03-06T11:03:07;12.10;69.30
28763;DHT22;15918;51.270;6.522;2024-03-06T11:05:41;12.10;69.40
28763;DHT22;15918;51.270;6.522;2024-03-06T11:08:10;12.20;69.30
28763;DHT22;15918;51.270;6.522;2024-03-06T11:10:37;12.20;69.50
28763;DHT22;15918;51.270;6.522;2024-03-06T11:13:24;12.20;69.50
28763;DHT22;15918;51.270;6.522;2024-03-06T11:15:52;12.30;69.10
28763;DHT22;15918;51.270;6.522;2024-03-06T11:23:27;12.40;69.20
28763;DHT22;15918;51.270;6.522;2024-03-06T11:28:27;12.40;69.50
28763;DHT22;15918;51.270;6.522;2024-03-06T11:31:01;12.40;69.10
28763;DHT22;15918;51.270;6.522;2024-03-06T11:36:23;12.40;69.00
28763;DHT22;15918;51.270;6.522;2024-03-06T11:38:52;12.50;68.90
28763;DHT22;15918;51.270;6.522;2024-03-06T11:41:22;12.50;69.30
28763;DHT22;15918;51.270;6.522;2024-03-06T11:43:49;12.60;69.40
28763;DHT22;15918;51.270;6.522;2024-03-06T11:46:19;12.60;69.40
28763;DHT22;15918;51.270;6.522;2024-03-06T11:48:53;12.60;69.00
28763;DHT22;15918;51.270;6.522;2024-03-06T11:51:19;12.60;68.80
28763;DHT22;15918;51.270;6.522;2024-03-06T11:53:45;12.60;68.70
28763;DHT22;15918;51.270;6.522;2024-03-06T11:56:11;12.70;68.70
28763;DHT22;15918;51.270;6.522;2024-03-06T11:58:37;12.70;68.70
28763;DHT22;15918;51.270;6.522;2024-03-06T12:01:03;12.70;69.00
28763;DHT22;15918;51.270;6.522;2024-03-06T12:03:29;12.70;68.80
28763;DHT22;15918;51.270;6.522;2024-03-06T12:05:56;12.80;69.00
28763;DHT22;15918;51.270;6.522;2024-03-06T12:08:21;12.70;69.00
28763;DHT22;15918;51.270;6.522;2024-03-06T12:10:47;12.80;69.00
28763;DHT22;15918;51.270;6.522;2024-03-06T12:13:16;12.80;68.30
28763;DHT22;15918;51.270;6.522;2024-03-06T12:15:45;12.80;67.30
28763;DHT22;15918;51.270;6.522;2024-03-06T12:18:11;12.80;66.60
28763;DHT22;15918;51.270;6.522;2024-03-06T12:20:42;12.80;66.30
28763;DHT22;15918;51.270;6.522;2024-03-06T12:23:19;12.80;66.40
28763;DHT22;15918;51.270;6.522;2024-03-06T12:25:46;12.80;66.80
28763;DHT22;15918;51.270;6.522;2024-03-06T12:28:12;12.80;67.30
28763;DHT22;15918;51.270;6.522;2024-03-06T12:30:43;12.80;67.10
28763;DHT22;15918;51.270;6.522;2024-03-06T12:33:10;12.90;66.80
28763;DHT22;15918;51.270;6.522;2024-03-06T12:35:40;12.90;67.00
28763;DHT22;15918;51.270;6.522;2024-03-06T12:38:15;12.90;66.80
28763;DHT22;15918;51.270;6.522;2024-03-06T12:40:42;12.90;67.00
28763;DHT22;15918;51.270;6.522;2024-03-06T12:43:08;12.90;66.40
28763;DHT22;15918;51.270;6.522;2024-03-06T12:45:34;13.00;66.80
28763;DHT22;15918;51.270;6.522;2024-03-06T12:48:00;13.00;67.20
28763;DHT22;15918;51.270;6.522;2024-03-06T12:50:25;13.00;67.30
28763;DHT22;15918;51.270;6.522;2024-03-06T12:52:51;13.00;67.10
28763;DHT22;15918;51.270;6.522;2024-03-06T12:55:17;13.00;67.20
28763;DHT22;15918;51.270;6.522;2024-03-06T12:57:44;13.10;67.40
28763;DHT22;15918;51.270;6.522;2024-03-06T13:00:11;13.10;67.00
28763;DHT22;15918;51.270;6.522;2024-03-06T13:02:45;13.10;65.60
28763;DHT22;15918;51.270;6.522;2024-03-06T13:05:11;13.10;65.90
28763;DHT22;15918;51.270;6.522;2024-03-06T13:07:36;13.10;65.80
28763;DHT22;15918;51.270;6.522;2024-03-06T13:10:03;13.10;66.10
28763;DHT22;15918;51.270;6.522;2024-03-06T13:12:29;13.10;66.50
28763;DHT22;15918;51.270;6.522;2024-03-06T13:14:54;13.10;66.90
28763;DHT22;15918;51.270;6.522;2024-03-06T13:17:20;13.10;67.00
28763;DHT22;15918;51.270;6.522;2024-03-06T13:19:46;13.20;67.20
28763;DHT22;15918;51.270;6.522;2024-03-06T13:22:11;13.20;67.20
28763;DHT22;15918;51.270;6.522;2024-03-06T13:24:37;13.20;67.20
28763;DHT22;15918;51.270;6.522;2024-03-06T13:27:03;13.30;67.00
28763;DHT22;15918;51.270;6.522;2024-03-06T13:29:29;13.30;67.10
28763;DHT22;15918;51.270;6.522;2024-03-06T13:31:55;13.30;67.10
28763;DHT22;15918;51.270;6.522;2024-03-06T13:34:20;13.30;67.20
28763;DHT22;15918;51.270;6.522;2024-03-06T13:36:46;13.30;66.70
28763;DHT22;15918;51.270;6.522;2024-03-06T13:39:12;13.30;67.00
28763;DHT22;15918;51.270;6.522;2024-03-06T13:41:37;13.30;67.20
28763;DHT22;15918;51.270;6.522;2024-03-06T13:44:03;13.30;66.60
28763;DHT22;15918;51.270;6.522;2024-03-06T13:46:29;13.30;67.80
28763;DHT22;15918;51.270;6.522;2024-03-06T13:48:55;13.30;67.80
28763;DHT22;15918;51.270;6.522;2024-03-06T13:51:20;13.30;66.40
28763;DHT22;15918;51.270;6.522;2024-03-06T13:53:46;13.30;65.90
28763;DHT22;15918;51.270;6.522;2024-03-06T13:56:12;13.30;66.60
28763;DHT22;15918;51.270;6.522;2024-03-06T13:58:37;13.30;65.70
28763;DHT22;15918;51.270;6.522;2024-03-06T14:01:04;13.30;65.70
28763;DHT22;15918;51.270;6.522;2024-03-06T14:03:31;13.30;65.40
28763;DHT22;15918;51.270;6.522;2024-03-06T14:05:59;13.30;65.30
28763;DHT22;15918;51.270;6.522;2024-03-06T14:08:24;13.30;66.00
28763;DHT22;15918;51.270;6.522;2024-03-06T14:10:50;13.30;65.60
28763;DHT22;15918;51.270;6.522;2024-03-06T14:13:16;13.30;65.90
28763;DHT22;15918;51.270;6.522;2024-03-06T14:15:42;13.30;65.40
28763;DHT22;15918;51.270;6.522;2024-03-06T14:18:08;13.30;65.30
28763;DHT22;15918;51.270;6.522;2024-03-06T14:20:33;13.30;65.60
28763;DHT22;15918;51.270;6.522;2024-03-06T14:22:59;13.30;65.60
28763;DHT22;15918;51.270;6.522;2024-03-06T14:25:24;13.30;65.10
28763;DHT22;15918;51.270;6.522;2024-03-06T14:27:50;13.30;64.70
28763;DHT22;15918;51.270;6.522;2024-03-06T14:30:16;13.30;64.50
28763;DHT22;15918;51.270;6.522;2024-03-06T14:32:43;13.30;64.60
28763;DHT22;15918;51.270;6.522;2024-03-06T14:35:10;13.30;64.60
28763;DHT22;15918;51.270;6.522;2024-03-06T14:37:35;13.30;64.80
28763;DHT22;15918;51.270;6.522;2024-03-06T14:40:01;13.30;64.40
28763;DHT22;15918;51.270;6.522;2024-03-06T14:42:27;13.30;65.20
28763;DHT22;15918;51.270;6.522;2024-03-06T14:44:52;13.30;64.20
28763;DHT22;15918;51.270;6.522;2024-03-06T14:47:18;13.30;64.60
28763;DHT22;15918;51.270;6.522;2024-03-06T14:49:44;13.30;64.80
28763;DHT22;15918;51.270;6.522;2024-03-06T14:52:16;13.30;64.70
28763;DHT22;15918;51.270;6.522;2024-03-06T14:54:41;13.30;64.90
28763;DHT22;15918;51.270;6.522;2024-03-06T14:57:07;13.40;65.40
28763;DHT22;15918;51.270;6.522;2024-03-06T14:59:33;13.30;65.40
28763;DHT22;15918;51.270;6.522;2024-03-06T15:01:59;13.40;65.50
28763;DHT22;15918;51.270;6.522;2024-03-06T15:04:25;13.40;64.80
28763;DHT22;15918;51.270;6.522;2024-03-06T15:06:51;13.40;64.90
28763;DHT22;15918;51.270;6.522;2024-03-06T15:09:16;13.40;65.10
28763;DHT22;15918;51.270;6.522;2024-03-06T15:11:47;13.40;64.40
28763;DHT22;15918;51.270;6.522;2024-03-06T15:14:13;13.40;64.60
28763;DHT22;15918;51.270;6.522;2024-03-06T15:16:39;13.40;64.80
28763;DHT22;15918;51.270;6.522;2024-03-06T15:19:05;13.40;64.60
28763;DHT22;15918;51.270;6.522;2024-03-06T15:21:31;13.40;65.00
28763;DHT22;15918;51.270;6.522;2024-03-06T15:23:57;13.40;64.90
28763;DHT22;15918;51.270;6.522;2024-03-06T15:26:23;13.40;64.90
28763;DHT22;15918;51.270;6.522;2024-03-06T15:28:48;13.40;64.60
28763;DHT22;15918;51.270;6.522;2024-03-06T15:31:14;13.40;64.80
28763;DHT22;15918;51.270;6.522;2024-03-06T15:33:40;13.40;65.10
28763;DHT22;15918;51.270;6.522;2024-03-06T15:36:05;13.40;64.40
28763;DHT22;15918;51.270;6.522;2024-03-06T15:38:31;13.40;64.30